Time;durP1;ratioP1;P1;durP2;ratioP2;P2;SDS_P1;SDS_P2;PMS_P1;PMS_P2;Temp;Humidity;BMP_temperature;BMP_pressure;BME280_temperature;BME280_humidity;BME280_pressure;Samples;Min_cycle;Max_cycle;Signal;HPM_P1;HPM_P2
2023/02/01 00:00:35;;;;;;;;;16.00;13.50;;;;;9.77;67.05;102595.41;2030982;28;1821143;-76
2023/02/01 00:01:45;;;;;;;;;19.50;17.00;;;;;9.80;67.35;102597.19;1978152;28;2827361;-76
2023/02/01 00:02:57;;;;;;;;;16.00;14.67;;;;;9.81;67.03;102600.66;2001378;28;2816917;-76
2023/02/01 00:04:08;;;;;;;;;18.50;16.00;;;;;9.81;67.10;102598.03;2011604;28;2827345;-76
2023/02/01 00:05:19;;;;;;;;;17.67;17.00;;;;;9.82;67.06;102598.03;1998645;28;2833682;-76
2023/02/01 00:06:33;;;;;;;;;19.43;15.43;;;;;9.81;67.30;102601.53;2037266;28;1833687;-76
2023/02/01 00:07:49;;;;;;;;;22.00;16.80;;;;;9.83;67.14;102597.16;2027152;28;2831969;-76
2023/02/01 00:09:01;;;;;;;;;16.00;13.00;;;;;9.83;67.29;102596.31;1988199;28;2814799;-76
2023/02/01 00:10:12;;;;;;;;;17.00;14.00;;;;;9.82;67.27;102598.03;1990648;28;2815883;-76
2023/02/01 00:11:23;;;;;;;;;9.67;8.00;;;;;9.83;67.16;102601.56;1994896;28;3475261;-76
2023/02/01 00:12:34;;;;;;;;;20.00;16.00;;;;;9.83;67.15;102597.16;2006390;28;2827350;-76
2023/02/01 00:13:47;;;;;;;;;16.50;14.83;;;;;9.84;67.35;102603.28;2016413;28;2821131;-76
2023/02/01 00:14:58;;;;;;;;;17.00;14.50;;;;;9.84;67.22;102605.91;1985833;28;2814842;-76
2023/02/01 00:16:19;;;;;;;;;14.00;13.00;;;;;9.83;67.19;102602.41;2000473;28;2790869;-76
2023/02/01 00:17:32;;;;;;;;;14.17;13.83;;;;;9.82;67.38;102608.56;2038619;28;1835780;-76
2023/02/01 00:18:45;;;;;;;;;18.67;16.33;;;;;9.82;66.83;102603.31;1985995;28;2828537;-76
2023/02/01 00:19:55;;;;;;;;;16.00;16.00;;;;;9.82;67.09;102600.66;2008626;28;2822142;-76
2023/02/01 00:21:06;;;;;;;;;14.50;13.50;;;;;9.81;67.33;102604.16;2000706;28;2807571;-76
2023/02/01 00:22:17;;;;;;;;;17.00;12.50;;;;;9.80;67.48;102605.06;1998968;28;2804458;-76
2023/02/01 00:23:31;;;;;;;;;15.50;13.00;;;;;9.78;67.36;102601.53;2011946;28;2784661;-76
2023/02/01 00:24:41;;;;;;;;;17.00;15.00;;;;;9.78;67.13;102594.53;1993603;28;2821143;-76
2023/02/01 00:25:53;;;;;;;;;16.50;15.00;;;;;9.79;67.75;102598.91;2009484;28;2818989;-76
2023/02/01 00:27:04;;;;;;;;;14.50;14.50;;;;;9.79;67.26;102592.78;1995624;28;2806996;-76
2023/02/01 00:28:15;;;;;;;;;15.00;13.00;;;;;9.78;67.46;102589.28;2001114;28;2799321;-76
2023/02/01 00:29:27;;;;;;;;;14.83;11.50;;;;;9.79;67.30;102580.53;2012722;28;1833666;-76
2023/02/01 00:30:38;;;;;;;;;15.50;14.00;;;;;9.79;67.32;102582.28;2013202;28;2799212;-76
2023/02/01 00:31:52;;;;;;;;;13.60;13.00;;;;;9.81;67.38;102582.25;2010751;28;1841905;-76
2023/02/01 00:33:02;;;;;;;;;14.67;14.00;;;;;9.81;67.28;102580.53;1978606;28;3508560;-76
2023/02/01 00:34:15;;;;;;;;;19.50;14.00;;;;;9.82;67.41;102584.03;2026332;28;2815887;-76
2023/02/01 00:35:26;;;;;;;;;16.00;12.67;;;;;9.83;67.35;102573.50;1984511;28;3520026;-76
2023/02/01 00:36:37;;;;;;;;;21.50;15.00;;;;;9.84;67.27;102579.66;2024274;28;2827380;-76
2023/02/01 00:37:50;;;;;;;;;18.83;13.50;;;;;9.83;67.41;102578.78;2009841;28;2808584;-76
2023/02/01 00:39:01;;;;;;;;;13.50;13.50;;;;;9.84;67.35;102577.91;1999274;28;2793985;-76
2023/02/01 00:40:13;;;;;;;;;15.50;13.00;;;;;9.84;67.22;102569.16;2042747;28;1844563;-76
2023/02/01 00:41:24;;;;;;;;;14.00;11.50;;;;;9.84;67.46;102570.03;2025242;28;2782563;-76
2023/02/01 00:42:35;;;;;;;;;15.80;12.40;;;;;9.84;67.36;102574.41;2021098;28;2825331;-76
2023/02/01 00:43:47;;;;;;;;;15.00;11.00;;;;;9.85;67.25;102570.91;2008778;28;2789855;-76
2023/02/01 00:44:58;;;;;;;;;16.25;13.50;;;;;9.84;67.69;102569.16;2030445;28;1845679;-76
2023/02/01 00:46:10;;;;;;;;;15.00;15.00;;;;;9.84;67.44;102566.53;2006517;28;2796095;-76
2023/02/01 00:47:20;;;;;;;;;17.00;14.50;;;;;9.83;67.28;102570.88;2008317;28;2818993;-76
2023/02/01 00:48:31;;;;;;;;;14.00;13.00;;;;;9.84;67.17;102569.16;2008708;28;2798143;-76
2023/02/01 00:49:43;;;;;;;;;14.25;14.25;;;;;9.82;67.32;102568.28;2037998;28;1845070;-76
2023/02/01 00:50:54;;;;;;;;;12.50;12.00;;;;;9.83;67.09;102573.50;2007987;28;2787755;-76
2023/02/01 00:52:05;;;;;;;;;16.50;13.00;;;;;9.82;67.18;102569.16;2025901;28;2801317;-76
2023/02/01 00:53:16;;;;;;;;;12.00;10.00;;;;;9.83;67.34;102576.13;2025574;28;2789925;-76
2023/02/01 00:54:27;;;;;;;;;13.00;12.00;;;;;9.82;67.40;102578.78;1995464;28;2795058;-76
2023/02/01 00:55:38;;;;;;;;;10.67;9.33;;;;;9.79;67.27;102574.41;2029471;28;3502334;-76
2023/02/01 00:56:49;;;;;;;;;13.25;13.25;;;;;9.79;67.13;102575.28;2043662;28;1825292;-76
2023/02/01 00:57:59;;;;;;;;;10.67;9.67;;;;;9.79;67.34;102583.16;1978896;28;3491886;-76
2023/02/01 00:59:12;;;;;;;;;10.33;10.33;;;;;9.80;67.08;102578.78;2010502;28;3513800;-76
2023/02/01 01:00:23;;;;;;;;;13.00;12.50;;;;;9.79;67.41;102572.66;2001648;28;2801303;-76
2023/02/01 01:01:34;;;;;;;;;10.00;10.00;;;;;9.79;67.72;102571.78;1997615;28;2784081;-76
2023/02/01 01:02:45;;;;;;;;;13.00;10.50;;;;;9.79;67.36;102579.66;2016810;28;2787790;-76
2023/02/01 01:03:58;;;;;;;;;14.33;13.00;;;;;9.79;67.26;102582.28;2033672;28;1844107;-76
2023/02/01 01:05:08;;;;;;;;;13.50;12.00;;;;;9.76;67.22;102575.28;1983537;28;2775217;-76
2023/02/01 01:06:22;;;;;;;;;15.00;12.00;;;;;9.77;67.25;102589.28;2004816;28;2786721;-76
2023/02/01 01:07:33;;;;;;;;;14.00;12.00;;;;;9.74;67.11;102586.66;2007988;28;3509605;-76
2023/02/01 01:08:44;;;;;;;;;13.50;11.00;;;;;9.73;67.32;102582.28;2024686;28;2794376;-76
2023/02/01 01:09:56;;;;;;;;;14.00;11.50;;;;;9.72;67.46;102589.28;2034424;28;1838830;-76
2023/02/01 01:11:13;;;;;;;;;12.50;11.00;;;;;9.72;67.92;102588.41;2006971;28;2784643;-76
2023/02/01 01:12:23;;;;;;;;;18.00;12.00;;;;;9.71;67.47;102589.25;1984598;28;2812770;-76
2023/02/01 01:13:35;;;;;;;;;13.00;11.00;;;;;9.71;67.65;102589.25;2015366;28;2789846;-76
2023/02/01 01:14:48;;;;;;;;;13.00;11.50;;;;;9.71;67.63;102589.25;2036346;28;1819049;-76
2023/02/01 01:16:02;;;;;;;;;14.33;9.33;;;;;9.71;67.57;102594.53;2006746;28;3503395;-76
2023/02/01 01:17:13;;;;;;;;;11.75;10.00;;;;;9.70;67.88;102593.66;2023899;28;1844029;-76
2023/02/01 01:18:24;;;;;;;;;12.00;11.00;;;;;9.70;67.68;102593.66;2007682;28;3503362;-76
2023/02/01 01:19:35;;;;;;;;;16.00;11.00;;;;;9.72;67.54;102597.16;2026030;28;2791954;-76
2023/02/01 01:20:47;;;;;;;;;13.80;12.00;;;;;9.71;67.95;102603.28;2039407;28;1819091;-75
2023/02/01 01:21:58;;;;;;;;;11.75;9.00;;;;;9.73;67.61;102603.31;2023399;28;1838310;-75
2023/02/01 01:23:10;;;;;;;;;12.00;10.50;;;;;9.72;68.01;102602.41;2023078;28;1842238;-75
2023/02/01 01:24:21;;;;;;;;;11.75;11.50;;;;;9.73;67.58;102598.06;2022831;28;1838808;-75
2023/02/01 01:25:32;;;;;;;;;10.00;8.00;;;;;9.74;67.71;102595.41;2008488;28;2763809;-75
2023/02/01 01:26:43;;;;;;;;;11.00;8.00;;;;;9.73;67.50;102592.78;2021366;28;3496159;-76
2023/02/01 01:27:54;;;;;;;;;12.00;9.67;;;;;9.73;67.30;102604.16;2035966;28;1837745;-76
2023/02/01 01:29:09;;;;;;;;;9.50;8.17;;;;;9.72;67.44;102597.16;1997848;28;2752892;-76
2023/02/01 01:30:19;;;;;;;;;15.00;11.00;;;;;9.73;67.78;102598.91;2006709;28;3514174;-75
2023/02/01 01:31:31;;;;;;;;;11.75;10.00;;;;;9.73;67.69;102603.31;2037152;28;1841418;-75
2023/02/01 01:32:42;;;;;;;;;9.50;8.50;;;;;9.72;67.33;102601.53;2009321;28;2749208;-75
2023/02/01 01:33:55;;;;;;;;;11.00;9.33;;;;;9.73;67.62;102608.56;2026723;28;3498163;-75
2023/02/01 01:35:06;;;;;;;;;12.50;11.00;;;;;9.74;67.63;102611.16;2007285;28;2787772;-75
2023/02/01 01:36:17;;;;;;;;;13.00;10.00;;;;;9.75;67.75;102598.91;2017326;28;2794549;-76
2023/02/01 01:37:28;;;;;;;;;13.00;10.25;;;;;9.75;67.45;102612.06;2022589;28;1843992;-76
2023/02/01 01:38:40;;;;;;;;;10.00;8.33;;;;;9.73;67.68;102604.16;2016067;28;2760717;-76
2023/02/01 01:39:50;;;;;;;;;11.00;11.00;;;;;9.74;67.75;102605.91;2012223;28;3520021;-76
2023/02/01 01:41:02;;;;;;;;;9.67;6.33;;;;;9.76;67.48;102598.03;2016677;28;1814947;-76
2023/02/01 01:42:13;;;;;;;;;10.33;10.00;;;;;9.76;67.64;102601.53;1985908;28;3517950;-76
2023/02/01 01:43:23;;;;;;;;;9.67;9.67;;;;;9.77;67.62;102610.28;1984890;28;3499189;-76
2023/02/01 01:44:57;;;;;;;;;8.75;7.50;;;;;9.76;67.59;102603.28;2034887;28;2737834;-76
2023/02/01 01:46:07;;;;;;;;;9.67;8.33;;;;;9.77;67.65;102599.78;2017830;28;2753419;-76
2023/02/01 01:47:18;;;;;;;;;11.00;9.00;;;;;9.75;67.81;102601.53;2031974;28;1826330;-76
2023/02/01 01:48:30;;;;;;;;;12.00;11.00;;;;;9.77;67.46;102600.69;2007561;28;3511760;-76
2023/02/01 01:49:41;;;;;;;;;11.00;9.00;;;;;9.77;67.64;102599.78;2005067;28;3482522;-76
2023/02/01 01:51:00;;;;;;;;;7.00;7.00;;;;;9.78;67.57;102604.16;2017537;28;3455442;-76
2023/02/01 01:52:12;;;;;;;;;14.00;11.67;;;;;9.78;67.35;102612.03;2015625;28;3511192;-76
2023/02/01 01:53:36;;;;;;;;;10.67;8.67;;;;;9.77;67.39;102624.31;2012727;28;2774294;-76
2023/02/01 01:54:53;;;;;;;;;16.33;8.67;;;;;9.77;67.29;102615.53;2006334;28;3509648;-76
2023/02/01 01:56:06;;;;;;;;;8.50;7.67;;;;;9.78;67.15;102606.78;2022271;28;2733615;-76
2023/02/01 01:57:33;;;;;;;;;9.67;7.50;;;;;9.76;67.40;102609.41;2032960;28;2759671;-76
2023/02/01 01:58:46;;;;;;;;;7.67;6.83;;;;;9.75;67.03;102601.53;2020571;28;2736723;-76
2023/02/01 02:00:02;;;;;;;;;9.17;7.00;;;;;9.75;66.99;102609.41;2038354;28;2741944;-76
2023/02/01 02:01:13;;;;;;;;;9.00;6.00;;;;;9.74;66.66;102616.41;1979250;28;2753421;-76
2023/02/01 02:02:24;;;;;;;;;5.00;5.00;;;;;9.74;66.16;102607.66;2030535;28;2746087;-76
2023/02/01 02:03:42;;;;;;;;;6.00;5.00;;;;;9.73;65.93;102613.81;2010112;28;2746181;-76
2023/02/01 02:04:55;;;;;;;;;8.17;6.67;;;;;9.71;66.00;102618.16;2035955;28;2746098;-76
2023/02/01 02:06:24;;;;;;;;;5.50;4.50;;;;;9.69;65.75;102607.66;2035947;28;2739873;-76
2023/02/01 02:07:41;;;;;;;;;10.00;6.00;;;;;9.69;65.76;102618.16;2029128;28;2767956;-76
2023/02/01 02:08:51;;;;;;;;;8.00;3.67;;;;;9.68;65.77;102619.91;1989352;28;2750370;-75
2023/02/01 02:10:10;;;;;;;;;8.00;6.33;;;;;9.69;65.07;102623.41;2043453;28;2738822;-75
2023/02/01 02:11:24;;;;;;;;;7.83;5.00;;;;;9.70;65.48;102621.66;2021301;28;2736144;-76
2023/02/01 02:12:40;;;;;;;;;5.67;5.00;;;;;9.68;65.35;102627.78;2044146;28;2748693;-76
2023/02/01 02:13:56;;;;;;;;;5.50;3.67;;;;;9.68;64.84;102622.53;2042108;28;2747144;-76
2023/02/01 02:15:12;;;;;;;;;6.00;4.33;;;;;9.67;64.58;102620.78;2021887;28;2746118;-76
2023/02/01 02:16:41;;;;;;;;;7.00;4.33;;;;;9.67;64.47;102623.44;2026061;28;2752364;-76
2023/02/01 02:18:04;;;;;;;;;7.50;5.00;;;;;9.67;63.62;102615.53;2044151;28;2746091;-76
2023/02/01 02:19:46;;;;;;;;;4.00;4.00;;;;;9.64;64.14;102607.66;2024262;28;2746101;-76
2023/02/01 02:21:32;;;;;;;;;6.33;3.67;;;;;9.65;63.89;102609.41;2043296;28;2744011;-76
2023/02/01 02:23:23;;;;;;;;;7.50;5.00;;;;;9.66;64.09;102610.28;2034848;28;2747140;-76
2023/02/01 02:24:48;;;;;;;;;7.67;4.00;;;;;9.67;63.83;102615.53;2042519;28;2748681;-76
2023/02/01 02:26:35;;;;;;;;;6.00;5.00;;;;;9.66;63.54;102611.16;1994457;28;2752376;-76
2023/02/01 02:28:13;;;;;;;;;3.33;3.17;;;;;9.65;63.35;102609.41;2040042;28;2736720;-76
2023/02/01 02:29:24;;;;;;;;;9.67;3.00;;;;;9.64;63.36;102610.28;1994211;28;2773185;-76
2023/02/01 02:30:37;;;;;;;;;6.00;4.00;;;;;9.65;63.17;102601.53;2042651;28;2750256;-76
2023/02/01 02:32:40;;;;;;;;;3.17;3.00;;;;;9.66;63.56;102602.41;2045936;28;2742996;-76
2023/02/01 02:34:06;;;;;;;;;8.00;7.33;;;;;9.68;63.15;102604.16;2043889;28;2730455;-76
2023/02/01 02:35:48;;;;;;;;;8.00;4.33;;;;;9.68;63.10;102612.03;2044596;28;2749243;-76
2023/02/01 02:37:19;;;;;;;;;5.00;5.00;;;;;9.68;63.50;102612.03;1972247;28;3463790;-76
2023/02/01 02:38:50;;;;;;;;;5.00;3.00;;;;;9.72;63.36;102605.03;2033470;28;2739936;-75
2023/02/01 02:40:11;;;;;;;;;9.00;4.00;;;;;9.73;63.24;102611.19;1997070;28;2759632;-76
2023/02/01 02:48:24;;;;;;;;;5.67;4.00;;;;;9.75;62.66;102588.41;2022870;28;2748182;-75
2023/02/01 02:55:18;;;;;;;;;6.00;4.00;;;;;9.70;62.43;102579.66;2052436;28;2744016;-76
2023/02/01 03:04:17;;;;;;;;;5.17;2.83;;;;;9.72;61.31;102602.41;2044011;28;2754452;-76
2023/02/01 03:05:41;;;;;;;;;5.50;5.50;;;;;9.73;61.93;102611.19;2020467;28;2748174;-76
2023/02/01 03:06:53;;;;;;;;;7.00;5.00;;;;;9.73;62.04;102613.81;2018091;28;2754456;-76
2023/02/01 03:08:13;;;;;;;;;5.00;5.00;;;;;9.74;61.82;102605.03;2044128;28;2743000;-76
2023/02/01 03:09:34;;;;;;;;;7.33;4.00;;;;;9.73;61.67;102609.41;2020714;28;2742998;-76
2023/02/01 03:11:07;;;;;;;;;6.00;4.17;;;;;9.77;61.87;102615.53;2044306;28;2746082;-76
2023/02/01 03:14:00;;;;;;;;;4.83;4.00;;;;;9.79;62.09;102613.78;2043859;28;2754432;-76
2023/02/01 03:15:14;;;;;;;;;6.33;4.17;;;;;9.79;61.81;102606.81;2020412;28;2754531;-76
2023/02/01 03:16:36;;;;;;;;;5.00;4.50;;;;;9.82;61.92;102612.91;2037924;28;2749245;-76
2023/02/01 03:17:49;;;;;;;;;9.67;5.00;;;;;9.81;61.65;102625.16;1993123;28;2758982;-75
2023/02/01 03:19:16;;;;;;;;;6.83;3.83;;;;;9.81;61.56;102612.03;2035492;28;2747163;-75
2023/02/01 03:20:31;;;;;;;;;3.33;3.33;;;;;9.81;61.47;102621.66;2047134;28;2736720;-75
2023/02/01 03:21:50;;;;;;;;;5.83;4.17;;;;;9.80;61.50;102620.81;2028103;28;2746087;-75
2023/02/01 03:23:06;;;;;;;;;3.50;1.00;;;;;9.79;61.61;102616.41;2052482;28;2732577;-76
2023/02/01 03:24:33;;;;;;;;;5.17;4.00;;;;;9.78;61.57;102606.78;2043979;28;2748556;-76
2023/02/01 03:25:49;;;;;;;;;8.67;5.50;;;;;9.80;61.37;102605.06;2020620;28;2748216;-76
2023/02/01 03:27:14;;;;;;;;;8.50;5.67;;;;;9.82;61.06;102619.06;2034457;28;2749247;-76
2023/02/01 03:28:33;;;;;;;;;8.00;4.00;;;;;9.81;61.36;102616.41;2034929;28;2740907;-76
2023/02/01 03:29:58;;;;;;;;;5.67;3.83;;;;;9.82;61.03;102613.81;2037150;28;2750308;-76
2023/02/01 03:31:13;;;;;;;;;5.17;4.00;;;;;9.82;60.81;102612.91;2020897;28;2746129;-76
2023/02/01 03:32:27;;;;;;;;;6.33;3.83;;;;;9.81;60.83;102619.91;2020647;28;2748173;-76
2023/02/01 03:33:38;;;;;;;;;4.00;3.67;;;;;9.82;61.15;102613.81;2009671;28;2754522;-76
2023/02/01 03:34:50;;;;;;;;;5.00;5.00;;;;;9.83;60.76;102607.66;2036452;28;2745454;-76
2023/02/01 03:36:19;;;;;;;;;7.67;4.17;;;;;9.83;60.39;102620.78;2025484;28;2747655;-76
2023/02/01 03:37:29;;;;;;;;;5.00;4.67;;;;;9.82;60.73;102603.31;2025080;28;2754459;-76
2023/02/01 03:38:45;;;;;;;;;7.00;4.00;;;;;9.83;60.80;102607.66;2044331;28;2754940;-76
2023/02/01 03:40:04;;;;;;;;;5.50;3.83;;;;;9.84;60.83;102601.53;2051449;28;2747132;-76
2023/02/01 03:41:23;;;;;;;;;5.67;5.17;;;;;9.86;60.81;102609.41;2025187;28;2754450;-76
2023/02/01 03:42:38;;;;;;;;;11.00;4.33;;;;;9.87;60.62;102619.94;2000335;28;3495495;-76
2023/02/01 03:44:01;;;;;;;;;12.33;5.33;;;;;9.86;60.38;102615.53;2015440;28;3502345;-75
2023/02/01 03:45:24;;;;;;;;;6.50;4.67;;;;;9.87;60.58;102621.69;2036475;28;2754475;-76
2023/02/01 03:46:48;;;;;;;;;3.00;2.00;;;;;9.86;59.97;102630.41;2048015;28;2745068;-76
2023/02/01 03:48:03;;;;;;;;;5.50;3.83;;;;;9.85;60.15;102618.19;2049240;28;2749230;-76
2023/02/01 03:49:24;;;;;;;;;7.00;7.00;;;;;9.84;60.10;102613.78;2025660;28;2716933;-76
2023/02/01 03:50:44;;;;;;;;;3.50;3.33;;;;;9.83;60.42;102612.06;2049519;28;2744007;-76
2023/02/01 03:51:58;;;;;;;;;6.00;4.00;;;;;9.85;60.55;102607.69;1996056;28;2741066;-76
2023/02/01 03:53:16;;;;;;;;;7.00;4.33;;;;;9.85;60.30;102618.19;2052413;28;2748197;-75
2023/02/01 03:54:31;;;;;;;;;8.17;5.67;;;;;9.85;60.22;102615.56;2026746;28;2747141;-76
2023/02/01 03:55:46;;;;;;;;;5.00;4.00;;;;;9.85;60.41;102613.78;2045607;28;2746198;-76
2023/02/01 03:57:04;;;;;;;;;5.67;4.00;;;;;9.85;58.55;102605.06;2049158;28;2750287;-76
2023/02/01 03:58:21;;;;;;;;;6.83;5.00;;;;;9.85;60.05;102613.78;2021678;28;2745048;-76
2023/02/01 03:59:38;;;;;;;;;4.67;3.67;;;;;9.85;59.75;102610.31;2028564;28;2754455;-76
2023/02/01 04:00:54;;;;;;;;;5.33;4.83;;;;;9.85;60.03;102603.28;2026396;28;2748197;-76
2023/02/01 04:02:08;;;;;;;;;6.00;3.83;;;;;9.86;60.02;102604.16;2022310;28;2741951;-76
2023/02/01 04:03:18;;;;;;;;;10.00;4.00;;;;;9.87;59.35;102606.81;1997373;28;2768094;-76
2023/02/01 04:04:30;;;;;;;;;5.00;3.00;;;;;9.85;59.82;102603.28;2047431;28;2741967;-76
2023/02/01 04:05:43;;;;;;;;;7.67;4.00;;;;;9.86;59.59;102599.78;2028966;28;2755504;-75
2023/02/01 04:06:56;;;;;;;;;7.17;5.17;;;;;9.87;59.94;102605.94;2029378;28;2740921;-76
2023/02/01 04:08:10;;;;;;;;;7.50;4.67;;;;;9.88;59.57;102597.16;2016925;28;2750280;-76
2023/02/01 04:09:23;;;;;;;;;9.33;5.17;;;;;9.89;59.81;102602.44;2028275;28;2746110;-76
2023/02/01 04:10:36;;;;;;;;;6.33;4.00;;;;;9.89;59.35;102604.16;2012751;28;2749224;-76
2023/02/01 04:11:46;;;;;;;;;8.33;4.00;;;;;9.88;59.45;102612.91;1995290;28;2754483;-76
2023/02/01 04:12:57;;;;;;;;;6.33;4.00;;;;;9.88;59.34;102612.91;2041109;28;2744355;-76
2023/02/01 04:14:11;;;;;;;;;5.50;4.33;;;;;9.88;59.26;102619.03;2043958;28;2750338;-76
2023/02/01 04:15:21;;;;;;;;;6.33;4.00;;;;;9.87;58.76;102612.06;2019212;28;2754471;-76
2023/02/01 04:16:33;;;;;;;;;5.33;2.33;;;;;9.87;59.09;102606.81;2043623;28;2746110;-76
2023/02/01 04:17:46;;;;;;;;;5.67;3.33;;;;;9.86;59.10;102605.03;2044529;28;2739856;-76
2023/02/01 04:18:59;;;;;;;;;7.00;5.00;;;;;9.85;59.19;102603.28;2027233;28;2742982;-75
2023/02/01 04:20:10;;;;;;;;;6.67;4.67;;;;;9.86;59.43;102599.78;2023655;28;2750351;-75
2023/02/01 04:21:21;;;;;;;;;4.33;3.00;;;;;9.86;58.68;102591.03;2010475;28;2750316;-75
2023/02/01 04:22:32;;;;;;;;;5.67;4.00;;;;;9.85;58.97;102598.03;2027589;28;2748189;-75
2023/02/01 04:23:45;;;;;;;;;8.50;4.83;;;;;9.85;58.95;102600.66;2037179;28;2754448;-76
2023/02/01 04:24:56;;;;;;;;;4.67;2.33;;;;;9.84;59.40;102601.53;2000562;28;2739841;-75
2023/02/01 04:26:07;;;;;;;;;7.67;5.67;;;;;9.84;58.93;102598.91;2038959;28;2748201;-76
2023/02/01 04:27:20;;;;;;;;;7.17;5.33;;;;;9.86;59.10;102598.91;2021893;28;2742992;-76
2023/02/01 04:28:33;;;;;;;;;6.00;3.33;;;;;9.85;58.92;102603.28;2026040;28;2748217;-76
2023/02/01 04:29:49;;;;;;;;;7.00;4.00;;;;;9.86;58.82;102610.28;2044349;28;2748198;-76
2023/02/01 04:31:02;;;;;;;;;5.83;5.00;;;;;9.86;58.89;102609.41;2021519;28;2748240;-76
2023/02/01 04:32:16;;;;;;;;;7.33;4.00;;;;;9.85;59.24;102605.91;2041405;28;2749265;-76
2023/02/01 04:33:29;;;;;;;;;3.50;3.00;;;;;9.86;58.70;102610.28;2044420;28;2752348;-76
2023/02/01 04:34:43;;;;;;;;;2.50;2.50;;;;;9.85;58.77;102603.28;2022511;28;2734671;-76
2023/02/01 04:35:56;;;;;;;;;7.33;5.00;;;;;9.85;58.97;102608.53;2021870;28;2746090;-76
2023/02/01 04:37:09;;;;;;;;;5.00;4.50;;;;;9.85;58.10;102605.91;2049147;28;2754453;-76
2023/02/01 04:38:22;;;;;;;;;8.83;5.67;;;;;9.84;58.12;102616.41;2044533;28;2755505;-76
2023/02/01 04:39:35;;;;;;;;;4.83;3.67;;;;;9.81;58.64;102612.03;2020528;28;2739873;-76
2023/02/01 04:40:49;;;;;;;;;8.00;5.50;;;;;9.81;58.79;102612.03;2044393;28;2754443;-76
2023/02/01 04:42:02;;;;;;;;;10.17;5.00;;;;;9.81;58.10;102616.41;2048413;28;2752840;-76
2023/02/01 04:43:16;;;;;;;;;5.67;3.00;;;;;9.80;58.79;102615.56;2023177;28;2742969;-76
2023/02/01 04:44:30;;;;;;;;;4.83;4.00;;;;;9.80;58.55;102620.81;2035574;28;2754428;-76
2023/02/01 04:45:50;;;;;;;;;3.33;3.00;;;;;9.81;58.73;102606.78;2018725;28;2741692;-76
2023/02/01 04:47:03;;;;;;;;;5.17;4.67;;;;;9.81;58.50;102609.41;2044452;28;2749246;-76
2023/02/01 04:48:18;;;;;;;;;5.50;3.67;;;;;9.81;58.55;102609.41;2044287;28;2750265;-76
2023/02/01 04:49:32;;;;;;;;;7.17;3.67;;;;;9.80;58.47;102607.69;2044795;28;2746099;-76
2023/02/01 04:50:47;;;;;;;;;4.17;3.50;;;;;9.78;58.90;102620.78;2020689;28;2748201;-76
2023/02/01 04:52:00;;;;;;;;;6.33;3.00;;;;;9.78;58.59;102618.16;2044519;28;2746098;-76
2023/02/01 04:53:15;;;;;;;;;4.00;4.00;;;;;9.78;59.02;102622.53;2021253;28;2744447;-76
2023/02/01 04:54:28;;;;;;;;;7.83;4.83;;;;;9.77;58.60;102620.81;2044481;28;2744001;-76
2023/02/01 04:55:42;;;;;;;;;7.67;4.67;;;;;9.77;58.67;102610.28;2021160;28;2748188;-75
2023/02/01 04:56:55;;;;;;;;;10.33;3.50;;;;;9.76;58.42;102613.78;2029010;28;2759654;-76
2023/02/01 04:58:10;;;;;;;;;6.00;5.50;;;;;9.76;58.76;102616.41;2030525;28;2752348;-76
2023/02/01 04:59:23;;;;;;;;;5.50;3.50;;;;;9.76;58.83;102608.53;2024898;28;2744019;-76
2023/02/01 05:00:37;;;;;;;;;5.17;3.00;;;;;9.77;58.80;102618.19;2012927;28;2735694;-76
2023/02/01 05:01:50;;;;;;;;;5.17;3.00;;;;;9.76;58.84;102617.28;2036981;28;2740914;-76
2023/02/01 05:03:03;;;;;;;;;5.17;3.50;;;;;9.74;58.95;102615.53;2017128;28;2744113;-76
2023/02/01 05:04:18;;;;;;;;;4.17;3.83;;;;;9.73;58.74;102616.44;2052664;28;2744053;-76
2023/02/01 05:05:29;;;;;;;;;7.33;4.00;;;;;9.73;58.87;102619.06;2003513;28;2748186;-76
2023/02/01 05:06:41;;;;;;;;;5.20;3.00;;;;;9.72;58.59;102633.03;2045811;28;2743001;-76
2023/02/01 05:07:54;;;;;;;;;6.17;4.50;;;;;9.72;58.59;102633.03;2044234;28;2746126;-76
2023/02/01 05:09:07;;;;;;;;;4.33;3.17;;;;;9.70;58.40;102632.16;2020301;28;2741936;-76
2023/02/01 05:10:21;;;;;;;;;4.00;4.00;;;;;9.67;58.81;102636.56;2045866;28;2725260;-76
2023/02/01 05:14:52;;;;;;;;;4.33;3.00;;;;;9.57;58.93;102627.78;2020842;28;2752359;-76
2023/02/01 05:16:06;;;;;;;;;3.50;2.33;;;;;9.57;58.90;102624.28;2021413;28;2737789;-76
2023/02/01 05:17:19;;;;;;;;;6.50;4.50;;;;;9.56;58.97;102630.38;2052265;28;2748176;-76
2023/02/01 05:18:32;;;;;;;;;7.83;4.17;;;;;9.54;58.78;102640.91;2020226;28;2750296;-75
2023/02/01 05:19:45;;;;;;;;;5.17;3.83;;;;;9.53;58.93;102627.78;2020649;28;2746130;-75
2023/02/01 05:20:59;;;;;;;;;4.67;2.33;;;;;9.50;59.22;102633.91;2045412;28;2752772;-76
2023/02/01 05:22:12;;;;;;;;;3.00;2.83;;;;;9.50;59.12;102627.75;2028605;28;2739929;-76
2023/02/01 05:23:25;;;;;;;;;3.83;3.83;;;;;9.50;59.30;102630.38;2035208;28;2752903;-76
2023/02/01 05:24:38;;;;;;;;;3.33;2.00;;;;;9.49;59.11;102633.88;2029507;28;2746114;-76
2023/02/01 05:25:51;;;;;;;;;5.00;3.33;;;;;9.48;59.18;102637.38;2037154;28;2739836;-76
2023/02/01 05:27:04;;;;;;;;;6.00;3.67;;;;;9.48;59.13;102640.00;2039352;28;2741963;-76
2023/02/01 05:28:15;;;;;;;;;7.00;5.00;;;;;9.44;59.07;102633.88;1990051;28;2752407;-76
2023/02/01 05:29:26;;;;;;;;;5.00;3.00;;;;;9.42;59.22;102636.50;2034536;28;2741935;-76
2023/02/01 05:30:37;;;;;;;;;5.67;3.00;;;;;9.40;59.07;102637.38;1988241;28;2740887;-76
2023/02/01 05:31:48;;;;;;;;;5.75;3.00;;;;;9.38;59.37;102640.00;2034645;28;2738845;-76
2023/02/01 05:33:03;;;;;;;;;8.17;3.50;;;;;9.37;59.62;102642.59;2042785;28;2755469;-76
2023/02/01 05:34:16;;;;;;;;;5.50;3.00;;;;;9.36;59.71;102644.34;2053681;28;2730470;-76
2023/02/01 05:35:30;;;;;;;;;3.33;2.83;;;;;9.37;59.85;102646.09;2028879;28;2750264;-76
2023/02/01 05:36:43;;;;;;;;;7.67;4.00;;;;;9.36;59.36;102644.34;2019772;28;2746110;-76
2023/02/01 05:37:56;;;;;;;;;7.17;3.67;;;;;9.33;58.97;102641.72;2021122;28;2745064;-76
2023/02/01 05:39:07;;;;;;;;;6.00;3.67;;;;;9.32;59.24;102642.59;2016702;28;1830463;-76
2023/02/01 05:40:18;;;;;;;;;7.67;3.00;;;;;9.30;59.64;102644.34;2019603;28;2746209;-76
2023/02/01 05:41:28;;;;;;;;;10.00;4.00;;;;;9.28;59.25;102638.22;1986739;28;3481482;-76
2023/02/01 05:42:40;;;;;;;;;3.75;3.00;;;;;9.26;59.50;102645.22;2043536;28;2750613;-76
2023/02/01 05:43:53;;;;;;;;;6.67;4.17;;;;;9.25;59.73;102653.94;2043296;28;2748203;-76
2023/02/01 05:45:07;;;;;;;;;7.00;3.67;;;;;9.25;59.86;102654.81;2020708;28;2754477;-76
2023/02/01 05:46:21;;;;;;;;;6.00;4.00;;;;;9.23;59.77;102657.41;2028183;28;2741923;-76
2023/02/01 05:47:34;;;;;;;;;4.67;4.00;;;;;9.22;59.99;102660.03;2048885;28;2741956;-76
2023/02/01 05:48:47;;;;;;;;;5.17;3.00;;;;;9.22;60.07;102666.19;2022124;28;2731507;-76
2023/02/01 05:50:00;;;;;;;;;5.83;2.67;;;;;9.20;60.21;102657.44;2050898;28;2752773;-76
2023/02/01 05:51:13;;;;;;;;;7.33;4.00;;;;;9.19;60.17;102660.91;2025468;28;2750311;-76
2023/02/01 05:52:27;;;;;;;;;4.00;3.00;;;;;9.20;60.01;102662.69;2021198;28;2740886;-76
2023/02/01 05:53:40;;;;;;;;;6.83;4.17;;;;;9.21;59.97;102664.41;2049375;28;2754437;-76
2023/02/01 05:54:53;;;;;;;;;4.00;2.83;;;;;9.22;60.11;102665.28;2021043;28;2740914;-75
2023/02/01 05:56:07;;;;;;;;;3.33;3.33;;;;;9.22;59.94;102660.94;2039923;28;2741947;-76
2023/02/01 05:57:20;;;;;;;;;6.67;3.00;;;;;9.22;59.96;102657.41;2038602;28;2744079;-76
2023/02/01 05:58:33;;;;;;;;;6.50;4.17;;;;;9.22;60.24;102647.81;2013868;28;2739875;-76
2023/02/01 05:59:48;;;;;;;;;5.33;4.83;;;;;9.21;60.32;102656.53;2021024;28;2744022;-76
2023/02/01 06:01:00;;;;;;;;;6.67;6.00;;;;;9.20;60.41;102657.44;2016758;28;2739912;-76
2023/02/01 06:02:13;;;;;;;;;4.67;4.00;;;;;9.20;60.42;102652.19;2036328;28;2742998;-76
2023/02/01 06:03:27;;;;;;;;;7.17;5.67;;;;;9.21;60.43;102651.28;2021223;28;2754428;-76
2023/02/01 06:04:41;;;;;;;;;6.67;3.17;;;;;9.23;60.58;102659.19;2053030;28;2748178;-76
2023/02/01 06:05:51;;;;;;;;;6.00;4.00;;;;;9.24;60.21;102653.06;1997393;28;3455475;-76
2023/02/01 06:07:02;;;;;;;;;7.33;4.00;;;;;9.25;60.14;102660.06;2042845;28;2757101;-76